X  Close Metar Aviation Weather Data     NZWN Wellington International Airport
Temperature
14°C Temperature
11°C Dewpoint
82% Humidity



Wind
39 KM/H
24 MPH
11 M/S
21 KTS



350°
North
Current Conditions

Overcast Overcast
Pressure 1006.92 (hPa) - 29.73 (inHg)
Visibility 6.2 (mile) - 10 (km)
Airport
Airport-code NZWN

Location: Wellington International Airport
Distance: 14 (km)

Metar:
NZWN 211400Z AUTO 35021G35KT 9999 OVC016/// 14/11 Q1007 NOSIG

Time: 22-09-2021 02:00 NZST